createdAt,value
2018-09-27T00:01:05.124Z,11.04
2018-09-27T00:03:33.498Z,11.10
2018-09-27T00:06:01.821Z,10.91
2018-09-27T00:08:30.043Z,11.23
2018-09-27T00:10:58.300Z,11.25
2018-09-27T00:13:26.502Z,11.00
2018-09-27T00:15:54.782Z,11.12
2018-09-27T00:18:23.025Z,11.18
2018-09-27T00:20:51.296Z,11.24
2018-09-27T00:23:19.501Z,11.18
2018-09-27T00:25:47.729Z,11.15
2018-09-27T00:28:15.959Z,11.04
2018-09-27T00:30:44.207Z,11.09
2018-09-27T00:33:12.433Z,11.00
2018-09-27T00:35:40.670Z,11.13
2018-09-27T00:38:08.916Z,10.98
2018-09-27T00:40:37.210Z,10.91
2018-09-27T00:43:05.513Z,10.74
2018-09-27T00:45:33.791Z,10.58
2018-09-27T00:48:02.019Z,10.57
2018-09-27T00:50:30.338Z,10.62
2018-09-27T00:52:58.575Z,10.73
2018-09-27T00:55:26.829Z,10.43
2018-09-27T00:57:55.066Z,10.63
2018-09-27T01:00:23.309Z,10.79
2018-09-27T01:02:51.584Z,10.72
2018-09-27T01:05:19.805Z,10.62
2018-09-27T01:07:48.026Z,10.63
2018-09-27T01:10:16.254Z,10.49
2018-09-27T01:12:44.561Z,10.62
2018-09-27T01:15:12.843Z,10.59
2018-09-27T01:17:41.116Z,10.56
2018-09-27T01:20:09.369Z,10.45
2018-09-27T01:22:37.602Z,10.33
2018-09-27T01:25:05.918Z,10.42
2018-09-27T01:27:34.399Z,10.38
2018-09-27T01:30:02.725Z,10.57
2018-09-27T01:32:30.930Z,10.16
2018-09-27T01:34:59.179Z,10.36
2018-09-27T01:37:27.422Z,10.16
2018-09-27T01:39:55.673Z,10.41
2018-09-27T01:42:23.890Z,10.36
2018-09-27T01:44:52.101Z,10.38
2018-09-27T01:47:20.359Z,10.21
2018-09-27T01:49:48.605Z,10.09
2018-09-27T01:52:16.834Z,10.18
2018-09-27T01:54:45.053Z,10.08
2018-09-27T01:57:13.278Z,9.89
2018-09-27T01:59:41.498Z,10.09
2018-09-27T02:02:09.773Z,10.15
2018-09-27T02:04:38.014Z,10.26
2018-09-27T02:07:06.257Z,9.91
2018-09-27T02:09:34.497Z,10.11
2018-09-27T02:12:02.750Z,10.09
2018-09-27T02:14:30.986Z,10.26
2018-09-27T02:16:59.193Z,10.34
2018-09-27T02:19:27.410Z,10.22
2018-09-27T02:21:55.622Z,10.03
2018-09-27T02:24:23.855Z,10.00
2018-09-27T02:26:52.152Z,10.21
2018-09-27T02:29:20.467Z,10.02
2018-09-27T02:31:48.690Z,10.08
2018-09-27T02:34:16.918Z,9.93
2018-09-27T02:36:45.164Z,9.82
2018-09-27T02:39:13.402Z,9.94
2018-09-27T02:41:41.655Z,9.74
2018-09-27T02:44:10.037Z,9.84
2018-09-27T02:46:38.255Z,9.96
2018-09-27T02:49:06.527Z,9.92
2018-09-27T02:51:34.745Z,10.09
2018-09-27T02:54:02.983Z,9.75
2018-09-27T02:56:31.218Z,9.76
2018-09-27T02:58:59.442Z,9.93
2018-09-27T03:01:27.678Z,10.04
2018-09-27T03:03:55.903Z,10.03
2018-09-27T03:06:24.118Z,9.89
2018-09-27T03:08:52.346Z,9.82
2018-09-27T03:11:20.595Z,9.94
2018-09-27T03:13:48.924Z,10.11
2018-09-27T03:16:17.050Z,9.95
2018-09-27T03:18:45.278Z,9.82
2018-09-27T03:21:13.494Z,9.98
2018-09-27T03:23:41.740Z,9.78
2018-09-27T03:26:09.958Z,9.67
2018-09-27T03:28:38.178Z,9.53
2018-09-27T03:31:06.675Z,9.51
2018-09-27T03:33:34.873Z,9.74
2018-09-27T03:36:03.107Z,9.80
2018-09-27T03:38:31.357Z,9.66
2018-09-27T03:40:59.553Z,9.80
2018-09-27T03:43:27.811Z,9.60
2018-09-27T03:45:56.026Z,9.56
2018-09-27T03:48:24.229Z,9.82
2018-09-27T03:50:52.554Z,9.74
2018-09-27T03:53:20.791Z,9.77
2018-09-27T03:55:49.023Z,9.90
2018-09-27T03:58:17.271Z,9.74
2018-09-27T04:00:45.498Z,9.57
2018-09-27T04:03:13.770Z,9.61
2018-09-27T04:05:41.956Z,9.44
2018-09-27T04:08:10.174Z,9.43
2018-09-27T04:10:38.416Z,9.51
2018-09-27T04:13:06.673Z,9.41
2018-09-27T04:15:34.889Z,9.53
2018-09-27T04:18:03.115Z,9.53
2018-09-27T04:20:35.038Z,9.58
2018-09-27T04:23:03.279Z,9.53
2018-09-27T04:25:31.513Z,9.70
2018-09-27T04:27:59.727Z,9.54
2018-09-27T04:30:27.954Z,9.57
2018-09-27T04:32:56.182Z,9.64
2018-09-27T04:35:24.393Z,9.60
2018-09-27T04:37:52.607Z,9.56
2018-09-27T04:40:20.846Z,9.55
2018-09-27T04:42:49.074Z,9.27
2018-09-27T04:45:17.306Z,9.15
2018-09-27T04:47:45.547Z,9.21
2018-09-27T04:50:13.773Z,9.32
2018-09-27T04:52:42.026Z,9.18
2018-09-27T04:55:10.250Z,9.20
2018-09-27T04:57:38.468Z,9.14
2018-09-27T05:00:06.789Z,8.98
2018-09-27T05:02:34.935Z,9.10
2018-09-27T05:05:03.197Z,8.96
2018-09-27T05:07:31.402Z,9.00
2018-09-27T05:09:59.637Z,8.94
2018-09-27T05:12:27.881Z,8.95
2018-09-27T05:14:56.102Z,8.84
2018-09-27T05:17:24.382Z,8.69
2018-09-27T05:19:52.594Z,8.75
2018-09-27T05:22:20.850Z,8.96
2018-09-27T05:24:49.102Z,8.96
2018-09-27T05:27:18.489Z,8.76
2018-09-27T05:29:46.650Z,8.94
2018-09-27T05:32:14.980Z,8.95
2018-09-27T05:34:43.250Z,8.87
2018-09-27T05:37:11.538Z,8.82
2018-09-27T05:39:40.886Z,8.97
2018-09-27T05:42:09.086Z,9.10
2018-09-27T05:44:37.317Z,9.14
2018-09-27T05:47:05.669Z,9.02
2018-09-27T05:49:34.023Z,8.93
2018-09-27T05:52:02.296Z,8.91
2018-09-27T05:54:31.707Z,8.98
2018-09-27T05:56:59.965Z,8.91
2018-09-27T05:59:28.308Z,9.01
2018-09-27T06:01:56.660Z,8.99
2018-09-27T06:04:24.891Z,8.95
2018-09-27T06:06:53.113Z,8.76
2018-09-27T06:09:21.372Z,8.88
2018-09-27T06:11:49.605Z,8.79
2018-09-27T06:14:17.856Z,8.94
2018-09-27T06:16:46.127Z,9.06
2018-09-27T06:19:14.535Z,9.21
2018-09-27T06:21:43.047Z,9.25
2018-09-27T06:24:11.316Z,9.34
2018-09-27T06:26:39.596Z,9.20
2018-09-27T06:29:08.083Z,9.09
2018-09-27T06:31:36.326Z,9.19
2018-09-27T06:34:04.573Z,9.16
2018-09-27T06:36:32.835Z,9.45
2018-09-27T06:39:01.110Z,9.53
2018-09-27T06:41:29.415Z,9.88
2018-09-27T06:43:57.623Z,9.96
2018-09-27T06:46:25.908Z,10.08
2018-09-27T06:48:54.332Z,10.46
2018-09-27T06:51:22.451Z,10.54
2018-09-27T06:53:50.710Z,10.62
2018-09-27T06:56:18.944Z,10.72
2018-09-27T06:58:47.215Z,11.13
2018-09-27T07:01:15.437Z,11.33
2018-09-27T07:03:43.685Z,11.18
2018-09-27T07:06:11.919Z,11.17
2018-09-27T07:08:40.253Z,11.43
2018-09-27T07:11:08.838Z,11.66
2018-09-27T07:13:37.506Z,11.92
2018-09-27T07:16:05.744Z,11.92
2018-09-27T07:18:34.995Z,12.00
2018-09-27T07:21:03.224Z,12.02
2018-09-27T07:23:31.471Z,12.39
2018-09-27T07:25:59.739Z,12.62
2018-09-27T07:28:27.974Z,12.89
2018-09-27T07:30:56.218Z,12.97
2018-09-27T07:33:24.468Z,12.76
2018-09-27T07:35:52.706Z,12.88
2018-09-27T07:38:20.944Z,13.37
2018-09-27T07:40:49.258Z,13.97
2018-09-27T07:43:17.574Z,14.05
2018-09-27T07:45:45.793Z,13.87
2018-09-27T07:48:14.048Z,13.76
2018-09-27T07:50:42.324Z,14.03
2018-09-27T07:53:10.465Z,14.68
2018-09-27T07:55:38.686Z,14.22
2018-09-27T07:58:07.341Z,14.83
2018-09-27T08:00:36.686Z,14.82
2018-09-27T08:03:04.972Z,14.21
2018-09-27T08:05:33.154Z,15.10
2018-09-27T08:08:01.388Z,15.83
2018-09-27T08:10:29.674Z,15.47
2018-09-27T08:12:57.893Z,16.54
2018-09-27T08:15:26.138Z,16.21
2018-09-27T08:17:54.427Z,16.15
2018-09-27T08:20:22.712Z,16.10
2018-09-27T08:22:50.918Z,16.96
2018-09-27T08:25:21.272Z,16.92
2018-09-27T08:27:49.557Z,18.29
2018-09-27T08:30:17.811Z,16.49
2018-09-27T08:32:46.114Z,17.00
2018-09-27T08:35:14.418Z,16.56
2018-09-27T08:37:42.703Z,15.93
2018-09-27T08:40:11.031Z,16.66
2018-09-27T08:42:39.417Z,16.91
2018-09-27T08:45:08.234Z,16.42
2018-09-27T08:47:37.465Z,15.75
2018-09-27T08:50:05.822Z,16.60
2018-09-27T08:52:34.150Z,16.78
2018-09-27T08:55:02.411Z,16.66
2018-09-27T08:57:30.761Z,16.11
2018-09-27T08:59:58.979Z,16.34
2018-09-27T09:02:27.285Z,16.26
2018-09-27T09:04:55.639Z,16.63
2018-09-27T09:07:23.941Z,16.22
2018-09-27T09:09:52.191Z,16.29
2018-09-27T09:12:21.066Z,16.93
2018-09-27T09:14:49.342Z,17.21
2018-09-27T09:17:17.642Z,16.95
2018-09-27T09:19:45.847Z,17.37
2018-09-27T09:22:14.083Z,17.34
2018-09-27T09:24:42.419Z,17.32
2018-09-27T09:27:10.808Z,17.51
2018-09-27T09:29:39.171Z,17.40
2018-09-27T09:32:07.306Z,17.84
2018-09-27T09:34:35.604Z,17.81
2018-09-27T09:37:03.955Z,17.37
2018-09-27T09:39:32.186Z,17.27
2018-09-27T09:42:00.422Z,17.47
2018-09-27T09:44:28.666Z,17.96
2018-09-27T09:46:56.934Z,17.56
2018-09-27T09:49:25.300Z,18.10
2018-09-27T09:51:53.506Z,18.33
2018-09-27T09:54:21.795Z,18.56
2018-09-27T09:56:50.198Z,18.14
2018-09-27T09:59:18.437Z,18.63
2018-09-27T10:01:46.698Z,18.45
2018-09-27T10:04:14.931Z,18.74
2018-09-27T10:06:43.410Z,18.93
2018-09-27T10:09:12.077Z,19.02
2018-09-27T10:11:40.396Z,19.09
2018-09-27T10:14:08.774Z,19.27
2018-09-27T10:16:37.366Z,19.34
2018-09-27T10:19:05.598Z,19.55
2018-09-27T10:21:33.846Z,19.72
2018-09-27T10:24:02.094Z,19.64
2018-09-27T10:26:31.441Z,19.59
2018-09-27T10:28:59.651Z,19.76
2018-09-27T10:31:27.974Z,19.88
2018-09-27T10:33:56.241Z,20.11
2018-09-27T10:36:24.503Z,20.01
2018-09-27T10:38:52.743Z,20.15
2018-09-27T10:41:21.030Z,20.19
2018-09-27T10:43:49.469Z,20.26
2018-09-27T10:46:17.841Z,20.24
2018-09-27T10:48:46.087Z,20.29
2018-09-27T10:51:14.433Z,20.18
2018-09-27T10:53:42.767Z,20.20
2018-09-27T10:56:12.086Z,20.29
2018-09-27T10:58:40.371Z,20.15
2018-09-27T11:01:08.662Z,20.36
2018-09-27T11:03:36.885Z,20.41
2018-09-27T11:06:05.156Z,20.38
2018-09-27T11:08:33.442Z,20.61
2018-09-27T11:11:02.792Z,20.69
2018-09-27T11:13:30.989Z,20.64
2018-09-27T11:15:59.233Z,20.76
2018-09-27T11:18:27.450Z,20.91
2018-09-27T11:20:55.666Z,20.97
2018-09-27T11:23:23.928Z,20.99
2018-09-27T11:25:52.174Z,21.15
2018-09-27T11:28:20.466Z,21.09
2018-09-27T11:30:54.153Z,21.12
2018-09-27T11:33:22.498Z,20.98
2018-09-27T11:35:50.758Z,21.29
2018-09-27T11:38:19.026Z,21.30
2018-09-27T11:40:47.339Z,21.43
2018-09-27T11:43:15.641Z,21.62
2018-09-27T11:45:43.895Z,21.52
2018-09-27T11:48:12.113Z,21.66
2018-09-27T11:50:40.356Z,21.59
2018-09-27T11:53:08.579Z,21.78
2018-09-27T11:55:36.894Z,21.74
2018-09-27T11:58:05.150Z,21.62
2018-09-27T12:00:33.445Z,21.78
2018-09-27T12:03:01.651Z,21.59
2018-09-27T12:05:29.935Z,21.92
2018-09-27T12:07:58.178Z,22.07
2018-09-27T12:10:26.394Z,22.08
2018-09-27T12:12:54.770Z,22.23
2018-09-27T12:15:22.978Z,22.27
2018-09-27T12:17:52.306Z,22.30
2018-09-27T12:20:20.538Z,22.31
2018-09-27T12:22:48.939Z,22.43
2018-09-27T12:25:18.186Z,22.58
2018-09-27T12:27:46.410Z,22.50
2018-09-27T12:30:15.722Z,22.70
2018-09-27T12:32:43.951Z,22.71
2018-09-27T12:35:12.190Z,22.49
2018-09-27T12:37:40.429Z,22.38
2018-09-27T12:40:08.755Z,22.70
2018-09-27T12:42:37.220Z,22.68
2018-09-27T12:45:05.462Z,22.75
2018-09-27T12:47:33.618Z,22.88
2018-09-27T12:50:01.876Z,22.70
2018-09-27T12:52:30.199Z,22.78
2018-09-27T12:54:58.330Z,22.87
2018-09-27T12:57:26.595Z,23.03
2018-09-27T12:59:54.814Z,22.88
2018-09-27T13:02:23.079Z,22.73
2018-09-27T13:04:51.338Z,23.10
2018-09-27T13:07:19.593Z,23.18
2018-09-27T13:09:47.882Z,23.10
2018-09-27T13:12:16.113Z,23.12
2018-09-27T13:14:44.278Z,23.40
2018-09-27T13:17:12.564Z,23.60
2018-09-27T13:19:40.836Z,23.75
2018-09-27T13:22:08.983Z,23.64
2018-09-27T13:24:37.214Z,23.85
2018-09-27T13:27:05.750Z,23.73
2018-09-27T13:29:33.930Z,24.09
2018-09-27T13:32:02.187Z,23.92
2018-09-27T13:34:30.369Z,24.10
2018-09-27T13:36:58.654Z,23.92
2018-09-27T13:39:26.874Z,23.89
2018-09-27T13:41:55.146Z,24.03
2018-09-27T13:44:23.418Z,24.04
2018-09-27T13:46:51.761Z,24.01
2018-09-27T13:49:20.042Z,24.16
2018-09-27T13:51:48.554Z,24.29
2018-09-27T13:54:17.005Z,24.29
2018-09-27T13:56:45.492Z,24.37
2018-09-27T13:59:13.861Z,24.30
2018-09-27T14:01:43.203Z,24.49
2018-09-27T14:04:11.475Z,24.58
2018-09-27T14:06:39.707Z,24.62
2018-09-27T14:09:08.916Z,24.68
2018-09-27T14:11:38.374Z,24.57
2018-09-27T14:14:06.766Z,24.67
2018-09-27T14:16:35.409Z,24.56
2018-09-27T14:19:03.735Z,24.78
2018-09-27T14:21:32.075Z,24.62
2018-09-27T14:24:00.282Z,24.71
2018-09-27T14:26:28.510Z,24.92
2018-09-27T14:28:56.740Z,24.74
2018-09-27T14:31:24.998Z,24.87
2018-09-27T14:33:54.361Z,24.86
2018-09-27T14:36:22.586Z,24.95
2018-09-27T14:38:50.793Z,24.86
2018-09-27T14:41:19.014Z,24.84
2018-09-27T14:43:47.233Z,24.79
2018-09-27T14:46:15.466Z,24.87
2018-09-27T14:48:43.689Z,24.94
2018-09-27T14:51:11.938Z,25.00
2018-09-27T14:53:40.200Z,24.78
2018-09-27T14:56:08.531Z,25.04
2018-09-27T14:58:36.860Z,24.91
2018-09-27T15:01:05.098Z,24.96
2018-09-27T15:03:33.319Z,24.96
2018-09-27T15:06:02.594Z,24.95
2018-09-27T15:08:30.810Z,24.82
2018-09-27T15:10:59.063Z,25.00
2018-09-27T15:13:27.287Z,24.97
2018-09-27T15:15:55.526Z,24.92
2018-09-27T15:18:23.811Z,24.99
2018-09-27T15:20:52.106Z,24.87
2018-09-27T15:23:20.395Z,24.97
2018-09-27T15:25:48.622Z,24.83
2018-09-27T15:28:16.869Z,24.84
2018-09-27T15:30:45.140Z,24.88
2018-09-27T15:33:13.397Z,24.63
2018-09-27T15:35:41.671Z,24.76
2018-09-27T15:38:09.880Z,24.74
2018-09-27T15:40:38.142Z,24.62
2018-09-27T15:43:06.466Z,24.68
2018-09-27T15:45:34.681Z,24.63
2018-09-27T15:48:03.058Z,24.62
2018-09-27T15:50:31.265Z,24.57
2018-09-27T15:52:59.487Z,24.67
2018-09-27T15:55:27.726Z,24.66
2018-09-27T15:57:56.119Z,24.60
2018-09-27T16:00:24.422Z,24.40
2018-09-27T16:02:52.724Z,24.40
2018-09-27T16:05:21.025Z,24.47
2018-09-27T16:07:49.327Z,24.33
2018-09-27T16:10:17.561Z,24.30
2018-09-27T16:12:45.890Z,24.20
2018-09-27T16:15:14.106Z,24.18
2018-09-27T16:17:42.432Z,24.06
2018-09-27T16:20:10.646Z,23.95
2018-09-27T16:22:38.959Z,23.91
2018-09-27T16:25:07.470Z,23.82
2018-09-27T16:27:36.079Z,23.77
2018-09-27T16:30:04.329Z,23.73
2018-09-27T16:32:32.541Z,23.59
2018-09-27T16:35:00.778Z,23.54
2018-09-27T16:37:28.990Z,23.57
2018-09-27T16:39:57.260Z,23.39
2018-09-27T16:42:25.566Z,23.34
2018-09-27T16:44:53.788Z,23.14
2018-09-27T16:47:21.997Z,23.14
2018-09-27T16:49:50.332Z,23.17
2018-09-27T16:52:18.849Z,23.04
2018-09-27T16:54:47.255Z,22.92
2018-09-27T16:57:15.466Z,22.87
2018-09-27T16:59:43.731Z,22.75
2018-09-27T17:02:11.910Z,22.77
2018-09-27T17:04:40.132Z,22.66
2018-09-27T17:07:08.366Z,22.65
2018-09-27T17:09:36.591Z,22.54
2018-09-27T17:12:04.804Z,22.45
2018-09-27T17:14:33.062Z,22.46
2018-09-27T17:17:01.259Z,22.38
2018-09-27T17:19:29.479Z,22.39
2018-09-27T17:21:57.726Z,22.29
2018-09-27T17:24:26.057Z,22.25
2018-09-27T17:26:54.289Z,22.03
2018-09-27T17:29:22.528Z,22.02
2018-09-27T17:31:50.742Z,21.90
2018-09-27T17:34:18.952Z,21.90
2018-09-27T17:36:47.194Z,21.89
2018-09-27T17:39:15.414Z,21.76
2018-09-27T17:41:43.630Z,21.67
2018-09-27T17:44:11.873Z,21.59
2018-09-27T17:46:40.117Z,21.45
2018-09-27T17:49:08.354Z,21.45
2018-09-27T17:51:36.570Z,21.37
2018-09-27T17:54:04.813Z,21.16
2018-09-27T17:56:33.099Z,21.14
2018-09-27T17:59:01.382Z,20.96
2018-09-27T18:01:29.641Z,20.89
2018-09-27T18:03:57.809Z,20.52
2018-09-27T18:06:26.041Z,20.34
2018-09-27T18:08:54.358Z,20.03
2018-09-27T18:11:22.594Z,19.93
2018-09-27T18:13:50.831Z,19.93
2018-09-27T18:16:19.046Z,19.97
2018-09-27T18:18:47.276Z,19.94
2018-09-27T18:21:15.553Z,19.75
2018-09-27T18:23:43.897Z,19.68
2018-09-27T18:26:12.129Z,19.42
2018-09-27T18:28:40.417Z,19.44
2018-09-27T18:31:08.804Z,19.32
2018-09-27T18:33:36.965Z,19.27
2018-09-27T18:36:05.190Z,19.29
2018-09-27T18:38:33.422Z,19.17
2018-09-27T18:41:01.654Z,18.96
2018-09-27T18:43:29.908Z,19.01
2018-09-27T18:45:58.121Z,18.78
2018-09-27T18:48:26.431Z,18.73
2018-09-27T18:50:54.694Z,18.62
2018-09-27T18:53:23.030Z,18.72
2018-09-27T18:55:51.245Z,18.69
2018-09-27T18:58:19.538Z,18.55
2018-09-27T19:00:47.756Z,18.41
2018-09-27T19:03:15.993Z,18.60
2018-09-27T19:05:44.226Z,18.46
2018-09-27T19:08:12.501Z,18.47
2018-09-27T19:10:40.742Z,18.20
2018-09-27T19:13:09.002Z,18.22
2018-09-27T19:15:37.469Z,17.97
2018-09-27T19:18:05.730Z,17.75
2018-09-27T19:20:33.950Z,18.07
2018-09-27T19:23:02.189Z,17.45
2018-09-27T19:25:30.434Z,17.43
2018-09-27T19:27:58.673Z,17.67
2018-09-27T19:30:26.898Z,17.74
2018-09-27T19:32:55.982Z,17.31
2018-09-27T19:35:24.270Z,17.41
2018-09-27T19:37:52.489Z,17.43
2018-09-27T19:40:20.781Z,17.28
2018-09-27T19:42:49.015Z,17.28
2018-09-27T19:45:17.242Z,17.49
2018-09-27T19:47:45.457Z,17.33
2018-09-27T19:50:13.687Z,17.22
2018-09-27T19:52:41.913Z,17.27
2018-09-27T19:55:10.155Z,17.21
2018-09-27T19:57:38.374Z,17.14
2018-09-27T20:00:06.859Z,17.09
2018-09-27T20:02:35.157Z,16.88
2018-09-27T20:05:03.416Z,16.81
2018-09-27T20:07:31.634Z,16.77
2018-09-27T20:09:59.890Z,16.61
2018-09-27T20:12:28.707Z,16.83
2018-09-27T20:14:56.938Z,16.77
2018-09-27T20:17:25.158Z,16.63
2018-09-27T20:19:53.446Z,16.49
2018-09-27T20:22:21.705Z,16.39
2018-09-27T20:24:49.915Z,16.50
2018-09-27T20:27:18.137Z,16.51
2018-09-27T20:29:46.368Z,16.37
2018-09-27T20:32:14.594Z,16.47
2018-09-27T20:34:42.860Z,16.50
2018-09-27T20:37:11.917Z,16.04
2018-09-27T20:39:40.142Z,15.99
2018-09-27T20:42:08.375Z,16.34
2018-09-27T20:44:36.583Z,16.21
2018-09-27T20:47:04.812Z,16.13
2018-09-27T20:49:33.074Z,16.13
2018-09-27T20:52:01.350Z,15.96
2018-09-27T20:54:29.615Z,16.12
2018-09-27T20:56:57.907Z,16.00
2018-09-27T20:59:26.130Z,15.84
2018-09-27T21:01:54.548Z,15.92
2018-09-27T21:04:22.802Z,15.79
2018-09-27T21:06:51.067Z,15.76
2018-09-27T21:09:22.866Z,15.72
2018-09-27T21:11:51.159Z,15.74
2018-09-27T21:14:19.505Z,15.60
2018-09-27T21:16:47.883Z,15.67
2018-09-27T21:19:18.154Z,15.80
2018-09-27T21:21:46.394Z,15.49
2018-09-27T21:24:14.585Z,15.53
2018-09-27T21:26:42.786Z,15.42
2018-09-27T21:29:10.971Z,15.37
2018-09-27T21:31:39.326Z,15.33
2018-09-27T21:34:07.518Z,15.34
2018-09-27T21:36:35.739Z,15.20
2018-09-27T21:39:04.965Z,15.15
2018-09-27T21:41:33.171Z,15.06
2018-09-27T21:44:01.365Z,15.23
2018-09-27T21:46:29.560Z,15.02
2018-09-27T21:48:57.759Z,15.04
2018-09-27T21:51:25.958Z,15.18
2018-09-27T21:53:54.178Z,15.22
2018-09-27T21:56:22.378Z,14.73
2018-09-27T21:58:50.634Z,14.95
2018-09-27T22:01:19.167Z,14.97
2018-09-27T22:03:47.366Z,14.86
2018-09-27T22:06:15.578Z,14.67
2018-09-27T22:08:43.860Z,14.61
2018-09-27T22:11:12.094Z,14.93
2018-09-27T22:13:40.320Z,14.72
2018-09-27T22:16:08.514Z,14.80
2018-09-27T22:18:37.170Z,14.89
2018-09-27T22:21:05.454Z,14.74
2018-09-27T22:23:33.812Z,14.66
2018-09-27T22:26:02.024Z,14.48
2018-09-27T22:28:30.287Z,14.62
2018-09-27T22:30:58.516Z,14.46
2018-09-27T22:33:26.726Z,14.29
2018-09-27T22:35:54.969Z,14.41
2018-09-27T22:38:23.173Z,14.56
2018-09-27T22:40:51.539Z,14.48
2018-09-27T22:43:19.834Z,14.34
2018-09-27T22:45:48.022Z,14.22
2018-09-27T22:48:16.408Z,14.54
2018-09-27T22:50:44.625Z,14.23
2018-09-27T22:53:12.896Z,14.17
2018-09-27T22:55:41.108Z,14.02
2018-09-27T22:58:09.383Z,14.01
2018-09-27T23:00:37.663Z,14.03
2018-09-27T23:03:05.859Z,14.03
2018-09-27T23:05:34.073Z,14.14
2018-09-27T23:08:02.281Z,13.65
2018-09-27T23:10:30.470Z,13.84
2018-09-27T23:12:58.697Z,13.81
2018-09-27T23:15:26.906Z,13.83
2018-09-27T23:17:55.104Z,13.74
2018-09-27T23:20:23.318Z,13.77
2018-09-27T23:22:51.529Z,13.85
2018-09-27T23:25:19.710Z,13.71
2018-09-27T23:27:47.911Z,13.57
2018-09-27T23:30:16.117Z,13.54
2018-09-27T23:32:44.321Z,13.62
2018-09-27T23:35:12.551Z,13.61
2018-09-27T23:37:40.779Z,13.83
2018-09-27T23:40:08.994Z,13.70
2018-09-27T23:42:37.238Z,13.66
2018-09-27T23:45:05.578Z,13.77
2018-09-27T23:47:33.817Z,13.52
2018-09-27T23:50:02.044Z,13.63
2018-09-27T23:52:30.292Z,13.55
2018-09-27T23:54:58.523Z,13.48
2018-09-27T23:57:26.758Z,13.37
2018-09-27T23:59:55.014Z,13.46
